Time;durP1;ratioP1;P1;durP2;ratioP2;P2;SDS_P1;SDS_P2;PMS_P1;PMS_P2;Temp;Humidity;BMP_temperature;BMP_pressure;BME280_temperature;BME280_humidity;BME280_pressure;Samples;Min_cycle;Max_cycle;Signal;HPM_P1;HPM_P2
2023/10/16 00:00:50;;;;;;;4.70;2.20;;;;;;;10.51;62.75;100866.47;10348106;28;20073;-53
2023/10/16 00:05:51;;;;;;;3.35;2.20;;;;;;;10.40;61.88;100871.66;10344432;28;20529;-54
2023/10/16 00:10:55;;;;;;;4.78;2.70;;;;;;;10.34;61.47;100875.59;10334612;28;20059;-54
2023/10/16 00:15:59;;;;;;;3.33;2.97;;;;;;;10.31;62.38;100870.47;10346885;28;23161;-55
2023/10/16 00:21:05;;;;;;;3.83;2.72;;;;;;;10.18;62.06;100875.81;10349028;28;20188;-55
2023/10/16 00:26:21;;;;;;;5.10;3.28;;;;;;;10.16;62.81;100887.50;10355322;28;21751;-55
2023/10/16 00:31:23;;;;;;;5.28;3.63;;;;;;;10.15;62.98;100876.00;10345493;28;20049;-54
2023/10/16 00:36:25;;;;;;;6.25;3.60;;;;;;;10.14;62.76;100876.97;10347472;28;20105;-54
2023/10/16 00:41:28;;;;;;;3.80;3.38;;;;;;;10.07;62.56;100881.88;10344337;28;20058;-54
2023/10/16 00:46:37;;;;;;;6.68;3.13;;;;;;;9.91;62.56;100876.72;10343569;28;20077;-55
2023/10/16 00:51:40;;;;;;;3.90;3.42;;;;;;;9.98;63.14;100881.63;10346937;28;20055;-55
2023/10/16 00:56:49;;;;;;;5.35;4.13;;;;;;;9.94;62.69;100882.78;10347492;28;20694;-55
2023/10/16 01:07:14;;;;;;;4.40;3.08;;;;;;;9.74;63.07;100871.69;10347308;28;20132;-54
2023/10/16 01:12:20;;;;;;;3.95;3.42;;;;;;;9.75;64.11;100875.22;10350779;28;20049;-54
2023/10/16 01:17:29;;;;;;;4.28;3.13;;;;;;;9.74;62.92;100866.38;10359241;28;20049;-55
2023/10/16 01:22:34;;;;;;;3.88;2.95;;;;;;;9.75;63.01;100862.75;10353948;28;20399;-52
2023/10/16 01:27:38;;;;;;;3.43;2.83;;;;;;;9.68;62.98;100866.78;10340581;28;20054;-55
2023/10/16 01:32:40;;;;;;;4.22;2.97;;;;;;;9.58;62.91;100850.63;10366005;28;20103;-54
2023/10/16 01:37:41;;;;;;;3.67;3.17;;;;;;;9.59;63.05;100859.44;10353682;28;20644;-54
2023/10/16 01:42:43;;;;;;;6.38;3.83;;;;;;;9.44;63.43;100843.53;10355605;28;20305;-54
2023/10/16 01:47:47;;;;;;;5.93;3.95;;;;;;;9.45;63.31;100860.34;10351028;28;20049;-54
2023/10/16 01:52:50;;;;;;;5.30;3.70;;;;;;;9.50;64.00;100864.41;10349467;28;20060;-55
2023/10/16 01:57:52;;;;;;;5.78;3.55;;;;;;;9.47;62.95;100867.28;10357160;28;20057;-55
2023/10/16 02:02:53;;;;;;;4.05;3.75;;;;;;;9.36;63.04;100865.31;10357180;28;20045;-54
2023/10/16 02:07:56;;;;;;;4.40;3.55;;;;;;;9.34;63.70;100853.94;10360604;28;20560;-57
2023/10/16 02:12:58;;;;;;;4.40;3.47;;;;;;;9.33;63.89;100848.72;10356776;28;20076;-53
2023/10/16 02:18:00;;;;;;;3.15;2.85;;;;;;;9.17;63.18;100841.78;10354570;28;20572;-54
2023/10/16 02:23:06;;;;;;;5.57;3.35;;;;;;;9.15;63.26;100845.47;10350520;28;20130;-55
2023/10/16 02:28:08;;;;;;;5.07;3.85;;;;;;;9.11;63.55;100839.50;10353818;28;20061;-55
2023/10/16 02:33:26;;;;;;;5.55;3.35;;;;;;;9.06;62.82;100838.94;10364314;28;20053;-54
2023/10/16 02:38:29;;;;;;;3.70;3.40;;;;;;;8.92;63.39;100820.41;10356148;28;20118;-54
2023/10/16 02:43:31;;;;;;;3.45;3.15;;;;;;;8.90;63.22;100838.22;10354551;28;20057;-54
2023/10/16 02:48:33;;;;;;;5.18;3.70;;;;;;;8.83;63.36;100838.63;10356022;28;20093;-53
2023/10/16 02:53:36;;;;;;;5.50;3.70;;;;;;;8.82;63.71;100842.22;10355114;28;20660;-55
2023/10/16 02:58:42;;;;;;;4.38;3.15;;;;;;;8.83;64.18;100833.31;10352921;28;20130;-55
2023/10/16 03:03:46;;;;;;;4.85;4.45;;;;;;;8.80;63.43;100849.44;10352934;28;20042;-54
2023/10/16 03:08:48;;;;;;;4.35;3.35;;;;;;;8.73;63.21;100845.47;10353387;28;20056;-53
2023/10/16 03:13:51;;;;;;;3.70;2.88;;;;;;;8.69;63.20;100843.09;10354208;28;20053;-54
2023/10/16 03:19:04;;;;;;;3.40;3.10;;;;;;;8.63;63.50;100841.69;10354530;28;20041;-55
2023/10/16 03:24:09;;;;;;;3.85;3.47;;;;;;;8.61;63.82;100843.59;10351927;28;20049;-54
2023/10/16 03:29:10;;;;;;;3.38;3.17;;;;;;;8.55;64.61;100834.22;10349714;28;20133;-54
2023/10/16 03:34:12;;;;;;;4.47;4.07;;;;;;;8.51;64.01;100842.47;10355445;28;20098;-54
2023/10/16 03:39:18;;;;;;;3.92;3.28;;;;;;;8.47;64.44;100847.13;10357437;28;20804;-54
2023/10/16 03:44:21;;;;;;;4.10;3.70;;;;;;;8.40;64.25;100837.78;10347917;28;20093;-54
2023/10/16 03:49:23;;;;;;;4.80;4.35;;;;;;;8.41;64.38;100848.31;10359942;28;20045;-54
2023/10/16 03:54:30;;;;;;;4.93;4.32;;;;;;;8.27;63.55;100846.50;10349424;28;20053;-54
2023/10/16 03:59:32;;;;;;;4.97;4.22;;;;;;;8.16;64.50;100859.56;10352037;28;20064;-56
2023/10/16 04:04:34;;;;;;;4.32;3.58;;;;;;;8.05;64.61;100846.13;10344946;28;20057;-55
2023/10/16 04:09:40;;;;;;;6.30;3.67;;;;;;;8.07;64.38;100845.06;10344495;28;20056;-54
2023/10/16 04:14:55;;;;;;;3.97;3.50;;;;;;;8.03;64.63;100843.56;10344001;28;20460;-54
2023/10/16 04:20:30;;;;;;;4.72;4.15;;;;;;;8.01;64.35;100834.81;10342708;28;20149;-54
2023/10/16 04:25:31;;;;;;;4.10;3.70;;;;;;;8.01;64.73;100839.28;10341111;28;20157;-55
2023/10/16 04:30:39;;;;;;;4.63;4.22;;;;;;;7.92;64.98;100819.47;10348069;28;20041;-55
2023/10/16 04:46:23;;;;;;;6.35;4.38;;;;;;;7.97;65.25;100825.34;10339838;28;20046;-54
2023/10/16 04:51:38;;;;;;;5.07;4.68;;;;;;;7.93;65.74;100818.53;10346088;28;20050;-55
2023/10/16 04:57:19;;;;;;;4.78;4.28;;;;;;;7.93;66.17;100810.59;10344385;28;20076;-56
2023/10/16 05:02:33;;;;;;;5.32;4.82;;;;;;;7.89;65.93;100809.06;10344733;28;20106;-55
2023/10/16 05:07:45;;;;;;;5.70;5.20;;;;;;;7.85;66.11;100812.84;10346914;28;20050;-54
2023/10/16 05:18:11;;;;;;;5.68;5.00;;;;;;;7.67;67.02;100807.72;10344890;28;20053;-55
2023/10/16 06:16:34;;;;;;;19.38;12.48;;;;;;;7.32;68.51;100823.84;10347271;28;20069;-53
2023/10/16 06:21:37;;;;;;;15.52;10.98;;;;;;;7.30;68.63;100827.56;10344582;28;20505;-53
2023/10/16 06:26:38;;;;;;;13.63;10.48;;;;;;;7.29;69.54;100821.38;10348178;28;20103;-55
2023/10/16 06:31:49;;;;;;;15.13;10.27;;;;;;;7.35;69.51;100838.72;10347020;28;20053;-54
2023/10/16 06:36:51;;;;;;;11.07;8.45;;;;;;;7.35;69.07;100834.28;10339636;28;20049;-54
2023/10/16 06:41:54;;;;;;;11.27;8.27;;;;;;;7.41;69.20;100836.56;10349041;28;20054;-54
2023/10/16 06:46:59;;;;;;;8.70;7.32;;;;;;;7.42;69.79;100846.22;10338615;28;20056;-54
2023/10/16 06:52:06;;;;;;;9.38;8.18;;;;;;;7.43;69.27;100850.59;10343363;28;20773;-56
2023/10/16 06:57:13;;;;;;;9.20;8.20;;;;;;;7.37;69.96;100856.25;10364257;28;20137;-56
2023/10/16 07:02:19;;;;;;;11.25;9.23;;;;;;;7.36;69.85;100854.53;10338307;28;20054;-54
2023/10/16 07:07:22;;;;;;;13.00;10.40;;;;;;;7.47;69.23;100851.25;10342517;28;20063;-55
2023/10/16 07:12:24;;;;;;;11.73;10.07;;;;;;;7.35;69.89;100818.38;10340683;28;20141;-55
2023/10/16 07:17:25;;;;;;;15.70;11.75;;;;;;;7.55;69.97;100854.34;10346973;28;20383;-54
2023/10/16 07:22:31;;;;;;;16.80;11.85;;;;;;;7.73;69.38;100878.03;10343507;28;20050;-54
2023/10/16 07:27:33;;;;;;;17.75;14.43;;;;;;;7.83;68.91;100888.94;10347028;28;20064;-54
2023/10/16 07:32:35;;;;;;;18.83;14.00;;;;;;;7.89;69.52;100891.25;10339551;28;20060;-55
2023/10/16 07:37:37;;;;;;;18.95;13.90;;;;;;;7.72;69.45;100845.38;10348292;28;20081;-54
2023/10/16 07:42:39;;;;;;;17.83;13.45;;;;;;;7.96;69.34;100874.88;10343732;28;20072;-55
2023/10/16 07:47:41;;;;;;;17.45;12.93;;;;;;;8.02;69.39;100873.66;10349459;28;20563;-55
2023/10/16 07:52:43;;;;;;;14.40;11.98;;;;;;;8.12;69.60;100877.47;10348215;28;20096;-56
2023/10/16 07:57:47;;;;;;;10.45;9.35;;;;;;;8.17;68.59;100871.00;10345322;28;20244;-55
2023/10/16 08:02:49;;;;;;;8.27;7.38;;;;;;;8.32;68.74;100878.06;10345934;28;20693;-54
2023/10/16 08:07:53;;;;;;;7.55;6.85;;;;;;;8.40;69.18;100865.16;10337983;28;20706;-55
2023/10/16 08:12:54;;;;;;;9.23;7.47;;;;;;;8.32;69.43;100832.97;10343258;28;20133;-54
2023/10/16 08:17:56;;;;;;;9.85;7.28;;;;;;;8.59;69.48;100859.59;10347086;28;20049;-54
2023/10/16 08:23:05;;;;;;;12.50;8.40;;;;;;;8.67;70.14;100864.44;10346250;28;20057;-54
2023/10/16 08:28:20;;;;;;;11.00;8.32;;;;;;;8.77;69.35;100862.91;10348571;28;20049;-55
2023/10/16 08:33:30;;;;;;;12.15;9.25;;;;;;;8.71;68.49;100844.72;10345654;28;20579;-54
2023/10/16 08:38:36;;;;;;;10.40;8.48;;;;;;;8.83;69.26;100865.16;10339881;28;20096;-54
2023/10/16 08:43:53;;;;;;;11.55;9.45;;;;;;;8.96;69.75;100859.06;10344218;28;20058;-54
2023/10/16 08:48:57;;;;;;;15.27;9.00;;;;;;;9.19;68.64;100861.09;10344611;28;20512;-54
2023/10/16 08:53:59;;;;;;;11.53;8.63;;;;;;;9.51;67.88;100860.78;10342832;28;20046;-54
2023/10/16 08:59:01;;;;;;;12.35;9.02;;;;;;;9.62;67.07;100859.22;10343794;28;20286;-58
2023/10/16 09:04:08;;;;;;;10.65;9.25;;;;;;;9.59;66.51;100862.09;10348307;28;20053;-55
2023/10/16 09:09:13;;;;;;;11.55;9.18;;;;;;;9.55;67.14;100859.63;10338433;28;20060;-54
2023/10/16 09:14:17;;;;;;;16.65;11.30;;;;;;;9.64;67.36;100868.81;10339619;28;20270;-55
2023/10/16 09:19:20;;;;;;;15.77;10.13;;;;;;;9.82;66.58;100860.56;10342043;28;20056;-55
2023/10/16 09:24:22;;;;;;;10.95;9.70;;;;;;;9.97;66.13;100863.94;10344021;28;20292;-56
2023/10/16 09:29:27;;;;;;;13.25;9.18;;;;;;;10.18;66.19;100859.00;10352419;28;20053;-55
2023/10/16 09:34:30;;;;;;;14.07;9.75;;;;;;;10.58;64.79;100843.78;10353912;28;20049;-55
2023/10/16 09:39:34;;;;;;;14.05;10.48;;;;;;;10.92;62.83;100848.47;10352337;28;20484;-56
2023/10/16 09:44:39;;;;;;;13.07;9.60;;;;;;;11.26;62.85;100844.19;10350409;28;20727;-55
2023/10/16 09:49:41;;;;;;;13.50;10.23;;;;;;;11.95;58.84;100855.97;10351008;28;20050;-54
2023/10/16 09:54:45;;;;;;;11.25;9.10;;;;;;;12.01;59.59;100853.69;10343050;28;20402;-54
2023/10/16 09:59:54;;;;;;;10.68;9.13;;;;;;;12.11;58.73;100842.31;10349679;28;20392;-54
2023/10/16 10:05:00;;;;;;;11.05;9.60;;;;;;;12.56;58.59;100858.34;10343039;28;20115;-55
2023/10/16 10:15:26;;;;;;;12.10;9.73;;;;;;;13.16;55.38;100840.16;10347168;28;20079;-54
2023/10/16 10:20:32;;;;;;;10.13;8.82;;;;;;;13.34;55.79;100837.81;10346600;28;20105;-54
2023/10/16 10:25:36;;;;;;;12.60;9.95;;;;;;;13.64;54.82;100822.88;10349824;28;20144;-59
2023/10/16 10:30:43;;;;;;;;;;;;;;;14.10;52.76;100828.81;10350997;28;21151;-53
2023/10/16 10:35:47;;;;;;;9.48;8.50;;;;;;;14.42;51.66;100822.47;10344400;28;19936;-53
2023/10/16 10:41:10;;;;;;;9.63;7.88;;;;;;;14.93;52.21;100834.09;10347787;28;20057;-58
2023/10/16 10:46:14;;;;;;;9.48;8.23;;;;;;;15.19;49.59;100819.19;10346370;28;20045;-54
2023/10/16 10:51:16;;;;;;;10.25;7.45;;;;;;;15.39;49.36;100803.09;10343334;28;20049;-55
2023/10/16 10:56:20;;;;;;;7.45;6.25;;;;;;;15.78;49.15;100810.28;10340434;28;20057;-55
2023/10/16 11:01:32;;;;;;;7.90;6.13;;;;;;;16.00;48.08;100803.72;10342028;28;20052;-54
2023/10/16 11:12:07;;;;;;;6.40;4.63;;;;;;;16.51;45.70;100772.00;10328214;28;20158;-54
2023/10/16 11:17:09;;;;;;;;;;;;;;;16.90;43.64;100766.44;10340700;28;20049;-54
2023/10/16 11:22:17;;;;;;;7.22;4.78;;;;;;;17.17;43.58;100756.59;10339669;28;20038;-54
2023/10/16 11:27:19;;;;;;;5.97;4.75;;;;;;;17.52;43.64;100747.66;10342786;28;20581;-55
2023/10/16 11:32:25;;;;;;;5.20;3.10;;;;;;;17.95;42.56;100737.84;10340527;28;20588;-54
2023/10/16 11:37:27;;;;;;;3.58;2.47;;;;;;;18.45;40.54;100711.09;10339378;28;20717;-55
2023/10/16 11:42:31;;;;;;;4.10;3.30;;;;;;;18.83;39.67;100717.78;10346025;28;20942;-54
2023/10/16 11:47:39;;;;;;;8.82;3.00;;;;;;;19.07;40.28;100717.00;10342353;28;20121;-49
2023/10/16 11:52:41;;;;;;;4.47;2.40;;;;;;;19.58;39.17;100718.66;10342719;28;20046;-56
2023/10/16 11:57:43;;;;;;;4.80;1.70;;;;;;;19.85;37.05;100708.50;10343394;28;20059;-57
2023/10/16 12:02:46;;;;;;;3.33;2.08;;;;;;;20.17;36.36;100702.13;10337938;28;20083;-56
2023/10/16 12:07:48;;;;;;;4.00;1.85;;;;;;;20.40;36.59;100675.16;10342406;28;20053;-56
2023/10/16 12:12:49;;;;;;;4.03;1.23;;;;;;;20.77;35.42;100673.59;10335812;28;20532;-56
2023/10/16 12:17:53;;;;;;;3.13;1.13;;;;;;;21.44;33.37;100682.84;10337164;28;20053;-55
2023/10/16 12:22:55;;;;;;;3.00;0.77;;;;;;;21.54;33.17;100678.03;10334185;28;20054;-56
2023/10/16 12:27:57;;;;;;;4.43;1.08;;;;;;;21.99;32.58;100669.06;10336789;28;20050;-56
2023/10/16 12:32:59;;;;;;;4.32;1.25;;;;;;;22.63;30.91;100656.69;10342404;28;20132;-57
2023/10/16 12:38:04;;;;;;;4.38;1.10;;;;;;;23.30;30.39;100645.41;10333927;28;20702;-56
2023/10/16 12:43:06;;;;;;;2.63;0.88;;;;;;;23.39;29.60;100656.09;10339485;28;20077;-59
2023/10/16 12:48:08;;;;;;;2.53;0.50;;;;;;;23.33;30.31;100649.63;10335801;28;20440;-56
2023/10/16 12:53:10;;;;;;;2.33;0.68;;;;;;;23.23;29.69;100644.50;10338141;28;20153;-57
2023/10/16 12:58:11;;;;;;;2.60;0.67;;;;;;;22.84;30.08;100634.97;10336567;28;20395;-57
2023/10/16 13:03:16;;;;;;;1.58;0.50;;;;;;;22.31;31.32;100628.97;10331542;28;20061;-56
2023/10/16 13:08:20;;;;;;;0.98;0.30;;;;;;;22.52;30.55;100626.34;10336440;28;20143;-54
2023/10/16 13:13:22;;;;;;;1.55;0.38;;;;;;;23.24;29.00;100594.59;10332777;28;20057;-55
2023/10/16 13:18:27;;;;;;;1.80;0.35;;;;;;;24.55;28.17;100605.63;10337270;28;20136;-53
2023/10/16 13:23:29;;;;;;;2.67;0.30;;;;;;;24.85;26.83;100611.53;10336675;28;20251;-54
2023/10/16 13:28:44;;;;;;;2.15;0.30;;;;;;;24.43;27.18;100605.38;10335840;28;20053;-53
2023/10/16 13:33:50;;;;;;;2.72;0.30;;;;;;;23.18;28.81;100608.97;10336630;28;20110;-54
2023/10/16 13:38:55;;;;;;;2.30;0.40;;;;;;;22.57;30.25;100607.59;10337124;28;21146;-55
2023/10/16 13:43:57;;;;;;;2.47;0.85;;;;;;;23.51;28.65;100600.22;10324100;28;20079;-54
2023/10/16 13:49:03;;;;;;;2.47;0.50;;;;;;;23.48;29.41;100587.84;10333996;28;20085;-54
2023/10/16 13:54:11;;;;;;;2.38;0.47;;;;;;;23.03;28.20;100600.03;10341899;28;20053;-54
2023/10/16 13:59:14;;;;;;;1.88;0.32;;;;;;;23.33;29.02;100594.44;10337301;28;20758;-56
2023/10/16 14:04:16;;;;;;;3.43;0.30;;;;;;;23.29;28.71;100597.56;10338099;28;20049;-54
2023/10/16 14:09:20;;;;;;;2.85;0.60;;;;;;;22.59;29.89;100521.44;10338731;28;20056;-54
2023/10/16 14:14:24;;;;;;;2.28;0.35;;;;;;;23.11;28.75;100584.47;10341681;28;20061;-55
2023/10/16 14:19:28;;;;;;;2.05;0.60;;;;;;;22.64;28.21;100582.38;10337455;28;20054;-55
2023/10/16 14:24:30;;;;;;;1.42;0.50;;;;;;;21.87;30.20;100553.03;10343635;28;20045;-55
2023/10/16 14:29:33;;;;;;;1.83;0.45;;;;;;;21.24;30.93;100589.63;10341737;28;20065;-55
2023/10/16 14:34:35;;;;;;;1.67;0.65;;;;;;;20.46;33.59;100578.97;10339211;28;22630;-56
2023/10/16 14:39:37;;;;;;;2.08;0.65;;;;;;;19.56;35.75;100585.66;10342851;28;20060;-55
2023/10/16 14:44:41;;;;;;;2.50;0.57;;;;;;;18.92;36.86;100589.19;10342263;28;20061;-55
2023/10/16 14:49:43;;;;;;;1.75;0.40;;;;;;;18.22;37.50;100579.69;10340954;28;20458;-55
2023/10/16 14:54:45;;;;;;;0.77;0.40;;;;;;;17.70;38.24;100569.06;10341295;28;20057;-55
2023/10/16 14:59:46;;;;;;;2.35;0.55;;;;;;;17.34;39.88;100572.78;10342902;28;20049;-56
2023/10/16 15:04:49;;;;;;;2.15;0.60;;;;;;;16.90;40.19;100559.41;10343540;28;20077;-55
2023/10/16 15:09:52;;;;;;;3.33;0.80;;;;;;;16.69;41.41;100557.84;10342253;28;20182;-55
2023/10/16 15:14:54;;;;;;;4.43;1.65;;;;;;;16.50;43.20;100564.28;10338745;28;20057;-54
2023/10/16 15:19:55;;;;;;;2.47;1.02;;;;;;;16.12;43.33;100528.66;10337308;28;20046;-54
2023/10/16 15:24:57;;;;;;;2.20;1.20;;;;;;;16.14;43.70;100545.47;10341942;28;20049;-56
2023/10/16 15:29:58;;;;;;;2.63;1.00;;;;;;;16.01;45.64;100547.69;10344448;28;20164;-57
2023/10/16 15:35:00;;;;;;;1.48;0.80;;;;;;;15.89;45.01;100547.88;10343893;28;20136;-55
2023/10/16 15:40:03;;;;;;;3.65;0.90;;;;;;;15.76;45.26;100549.22;10338371;28;20062;-58
2023/10/16 15:45:05;;;;;;;3.55;1.02;;;;;;;15.58;46.98;100541.94;10341390;28;20064;-55
2023/10/16 15:50:10;;;;;;;2.28;1.00;;;;;;;15.35;46.36;100525.41;10339256;28;20054;-54
2023/10/16 15:55:17;;;;;;;2.65;0.98;;;;;;;15.30;46.07;100538.44;10341141;28;20053;-56
2023/10/16 16:00:25;;;;;;;2.05;0.90;;;;;;;15.19;46.94;100526.91;10335431;28;20049;-54
2023/10/16 16:05:31;;;;;;;3.53;1.17;;;;;;;15.05;46.94;100538.09;10338099;28;20511;-56
2023/10/16 16:10:39;;;;;;;1.80;1.08;;;;;;;14.95;47.41;100538.13;10336599;28;20442;-54
2023/10/16 16:15:41;;;;;;;2.90;0.98;;;;;;;14.67;47.99;100521.13;10334380;28;20812;-54
2023/10/16 16:20:47;;;;;;;4.18;2.33;;;;;;;14.48;48.33;100505.88;10339884;28;20079;-54
2023/10/16 16:25:49;;;;;;;3.30;1.05;;;;;;;14.57;48.14;100549.72;10341465;28;20311;-55
2023/10/16 16:30:53;;;;;;;1.38;0.70;;;;;;;14.39;49.00;100539.69;10336378;28;20098;-54
2023/10/16 16:35:56;;;;;;;2.50;0.93;;;;;;;14.30;48.39;100551.25;10339501;28;20744;-55
2023/10/16 16:40:57;;;;;;;2.03;0.98;;;;;;;14.24;48.95;100552.66;10343180;28;20080;-55
2023/10/16 16:46:00;;;;;;;3.03;1.40;;;;;;;14.10;49.17;100543.22;10345529;28;20417;-55
2023/10/16 16:51:01;;;;;;;2.63;1.08;;;;;;;14.05;49.97;100558.88;10343409;28;20065;-55
2023/10/16 16:56:04;;;;;;;1.58;0.75;;;;;;;13.73;50.25;100533.16;10345773;28;20490;-56
2023/10/16 17:01:07;;;;;;;3.75;1.60;;;;;;;13.75;50.67;100547.25;10342476;28;20132;-56
2023/10/16 17:06:08;;;;;;;4.22;1.42;;;;;;;13.82;51.03;100560.06;10342965;28;20189;-54
2023/10/16 17:11:11;;;;;;;2.75;1.10;;;;;;;13.74;50.96;100560.75;10338166;28;20042;-55
2023/10/16 17:16:12;;;;;;;2.20;1.00;;;;;;;13.72;51.13;100555.56;10337858;28;20499;-55
2023/10/16 17:21:14;;;;;;;3.33;2.13;;;;;;;13.65;51.15;100564.25;10341773;28;20477;-55
2023/10/16 17:26:17;;;;;;;4.40;1.77;;;;;;;13.56;51.89;100565.91;10342002;28;20481;-55
2023/10/16 17:31:19;;;;;;;2.23;1.40;;;;;;;13.52;51.59;100562.66;10346781;28;20056;-54
2023/10/16 17:36:21;;;;;;;3.78;2.00;;;;;;;13.51;52.02;100570.81;10342300;28;20549;-55
2023/10/16 17:41:23;;;;;;;4.40;2.28;;;;;;;13.44;54.75;100576.69;10340936;28;20162;-55
2023/10/16 17:46:24;;;;;;;2.88;1.73;;;;;;;13.38;52.10;100571.88;10340469;28;20052;-55
2023/10/16 17:51:28;;;;;;;5.22;1.85;;;;;;;13.36;52.63;100584.56;10353715;28;20184;-55
2023/10/16 17:56:29;;;;;;;3.75;1.83;;;;;;;13.36;54.13;100583.69;10348212;28;20831;-57
2023/10/16 18:01:31;;;;;;;3.40;1.45;;;;;;;13.34;53.22;100586.50;10354100;28;20057;-55
2023/10/16 18:06:35;;;;;;;2.85;1.92;;;;;;;13.32;54.69;100582.25;10346477;28;20175;-55
2023/10/16 18:11:39;;;;;;;2.53;1.80;;;;;;;13.22;54.56;100577.69;10345017;28;20167;-56
2023/10/16 18:16:42;;;;;;;4.20;1.85;;;;;;;13.19;54.57;100582.47;10351087;28;20135;-55
2023/10/16 18:21:47;;;;;;;4.40;2.70;;;;;;;13.13;54.57;100588.34;10341464;28;20140;-56
2023/10/16 18:26:48;;;;;;;5.93;3.17;;;;;;;13.07;54.99;100582.53;10353745;28;20066;-55
2023/10/16 18:31:50;;;;;;;4.57;2.65;;;;;;;13.02;55.42;100587.44;10346674;28;20061;-58
2023/10/16 18:36:52;;;;;;;5.35;2.97;;;;;;;12.98;55.58;100577.13;10345442;28;20497;-56
2023/10/16 18:41:54;;;;;;;5.43;3.35;;;;;;;12.87;55.65;100584.22;10345884;28;20427;-56
2023/10/16 18:46:55;;;;;;;5.65;3.13;;;;;;;12.81;55.50;100589.25;10361355;28;20178;-55
2023/10/16 18:51:57;;;;;;;4.80;2.85;;;;;;;12.78;56.56;100582.34;10346110;28;20148;-56
2023/10/16 18:56:59;;;;;;;3.75;3.30;;;;;;;12.75;55.85;100579.94;10353042;28;20139;-56
2023/10/16 19:02:00;;;;;;;4.22;3.50;;;;;;;12.71;56.79;100584.69;10350914;28;20061;-55
2023/10/16 19:07:06;;;;;;;4.10;3.38;;;;;;;12.65;56.63;100584.34;10349162;28;20053;-55
2023/10/16 19:12:08;;;;;;;4.25;2.97;;;;;;;12.62;57.33;100577.44;10348503;28;20052;-55
2023/10/16 19:17:11;;;;;;;6.18;3.50;;;;;;;12.60;57.33;100576.72;10343670;28;20203;-53
2023/10/16 19:22:12;;;;;;;4.22;3.72;;;;;;;12.57;57.28;100568.97;10343731;28;20120;-55
2023/10/16 19:27:14;;;;;;;7.28;3.55;;;;;;;12.27;57.81;100513.66;10348591;28;20399;-56
2023/10/16 19:32:15;;;;;;;4.32;3.38;;;;;;;12.47;58.08;100562.72;10347422;28;20314;-56
2023/10/16 19:37:20;;;;;;;5.07;3.00;;;;;;;12.46;57.83;100569.03;10363668;28;20577;-55
2023/10/16 19:42:21;;;;;;;;;;;;;;;12.45;58.26;100584.19;10349094;28;20188;-55
2023/10/16 19:47:24;;;;;;;5.28;3.05;;;;;;;12.43;58.35;100593.31;10349654;28;20657;-55
2023/10/16 19:52:26;;;;;;;4.85;3.42;;;;;;;12.43;58.68;100585.28;10346469;28;20056;-52
2023/10/16 19:57:28;;;;;;;4.93;2.88;;;;;;;12.40;58.37;100582.88;10348807;28;20148;-57
2023/10/16 20:02:29;;;;;;;4.63;3.35;;;;;;;12.37;58.94;100584.84;10348491;28;20160;-55
2023/10/16 20:07:31;;;;;;;4.55;3.05;;;;;;;12.35;58.38;100577.94;10344477;28;20580;-54
2023/10/16 20:12:34;;;;;;;5.13;3.50;;;;;;;12.29;58.41;100584.63;10347003;28;20383;-55
2023/10/16 20:17:36;;;;;;;7.00;3.78;;;;;;;12.31;58.28;100590.69;10350719;28;20399;-55
2023/10/16 20:22:37;;;;;;;4.57;2.70;;;;;;;12.19;58.52;100573.88;10351555;28;20178;-55
2023/10/16 20:27:39;;;;;;;4.75;2.20;;;;;;;12.24;57.98;100570.81;10351339;28;20060;-55
2023/10/16 20:32:41;;;;;;;2.60;2.40;;;;;;;12.11;58.49;100575.47;10349627;28;20169;-54
2023/10/16 20:37:43;;;;;;;6.28;2.10;;;;;;;12.16;58.58;100589.25;10348669;28;20168;-55
2023/10/16 20:42:46;;;;;;;2.85;2.28;;;;;;;12.12;58.74;100587.84;10352657;28;20069;-55
2023/10/16 20:47:51;;;;;;;5.47;2.42;;;;;;;12.09;58.29;100593.44;10346183;28;20457;-54
2023/10/16 20:52:54;;;;;;;3.22;1.75;;;;;;;12.08;59.37;100605.91;10361679;28;20060;-54
2023/10/16 20:57:56;;;;;;;4.78;1.92;;;;;;;11.91;57.96;100574.41;10345054;28;20111;-53
2023/10/16 21:03:02;;;;;;;5.88;3.10;;;;;;;11.98;58.49;100592.47;10353408;28;21161;-54
2023/10/16 21:08:05;;;;;;;5.18;2.40;;;;;;;11.53;58.64;100527.66;10349310;28;20111;-56
2023/10/16 21:13:07;;;;;;;4.78;2.80;;;;;;;11.83;58.76;100583.84;10349658;28;20053;-55
2023/10/16 21:18:10;;;;;;;3.65;2.30;;;;;;;11.91;59.52;100596.56;10349031;28;20053;-54
2023/10/16 21:23:12;;;;;;;2.22;1.98;;;;;;;11.89;60.07;100593.19;10351817;28;20454;-55
2023/10/16 21:28:13;;;;;;;4.40;1.92;;;;;;;11.86;59.81;100585.44;10355141;28;20446;-55
2023/10/16 21:33:15;;;;;;;4.15;2.00;;;;;;;11.77;59.15;100580.81;10355840;28;20148;-56
2023/10/16 21:38:17;;;;;;;4.35;2.78;;;;;;;11.71;58.69;100583.97;10350254;28;20868;-55
2023/10/16 21:43:18;;;;;;;5.20;2.92;;;;;;;11.68;59.93;100585.94;10358632;28;20096;-55
2023/10/16 21:48:21;;;;;;;3.63;3.10;;;;;;;11.58;59.94;100563.63;10354531;28;20107;-55
2023/10/16 21:53:24;;;;;;;6.03;3.72;;;;;;;11.52;61.04;100569.47;10347332;28;20072;-55
2023/10/16 21:58:26;;;;;;;5.55;3.65;;;;;;;11.54;62.00;100572.84;10346455;28;20167;-54
2023/10/16 22:03:27;;;;;;;5.00;4.00;;;;;;;11.21;61.41;100526.56;10352980;28;20041;-55
2023/10/16 22:08:29;;;;;;;5.32;3.75;;;;;;;11.42;61.41;100552.50;10349333;28;20144;-54
2023/10/16 22:13:32;;;;;;;6.15;4.28;;;;;;;11.34;61.45;100560.28;10347564;28;20701;-55
2023/10/16 22:18:33;;;;;;;4.85;3.58;;;;;;;11.24;60.90;100554.81;10342117;28;20069;-55
2023/10/16 22:23:36;;;;;;;6.57;3.03;;;;;;;11.28;61.67;100562.44;10340810;28;20353;-55
2023/10/16 22:28:37;;;;;;;5.03;3.50;;;;;;;11.20;61.51;100538.22;10340847;28;20065;-56
2023/10/16 22:33:39;;;;;;;4.22;3.10;;;;;;;11.26;62.18;100552.84;10353571;28;20064;-55
2023/10/16 22:38:42;;;;;;;4.47;3.22;;;;;;;11.23;61.74;100537.97;10344075;28;20764;-55
2023/10/16 22:43:44;;;;;;;5.32;3.22;;;;;;;11.15;60.86;100529.72;10344934;28;20046;-54
2023/10/16 22:48:45;;;;;;;4.18;2.65;;;;;;;11.15;62.27;100529.72;10353591;28;20625;-55
2023/10/16 22:53:48;;;;;;;4.97;2.88;;;;;;;11.07;61.65;100526.81;10305717;28;1106667;-55
2023/10/16 22:58:51;;;;;;;8.25;3.58;;;;;;;10.98;62.98;100524.88;10350795;28;20054;-55
2023/10/16 23:03:53;;;;;;;3.53;2.80;;;;;;;11.08;62.09;100548.00;10347259;28;20104;-55
2023/10/16 23:08:56;;;;;;;3.17;2.88;;;;;;;11.07;62.75;100545.47;10343560;28;20227;-55
2023/10/16 23:13:59;;;;;;;2.90;2.17;;;;;;;11.04;62.71;100537.72;10351194;28;20721;-56
2023/10/16 23:19:08;;;;;;;4.88;2.60;;;;;;;10.96;63.20;100530.34;10348732;28;20053;-55
2023/10/16 23:24:12;;;;;;;5.50;3.05;;;;;;;10.94;62.40;100527.78;10345204;28;20041;-55
2023/10/16 23:29:13;;;;;;;5.40;3.15;;;;;;;10.79;62.84;100515.63;10352139;28;20106;-54
2023/10/16 23:34:19;;;;;;;5.63;3.08;;;;;;;10.82;62.67;100517.22;10341028;28;20215;-55
2023/10/16 23:39:22;;;;;;;4.13;2.83;;;;;;;10.76;63.23;100510.56;10356434;28;20495;-55
2023/10/16 23:44:24;;;;;;;5.18;2.88;;;;;;;10.65;63.49;100511.38;10346311;28;20270;-55
2023/10/16 23:49:30;;;;;;;2.78;2.50;;;;;;;10.77;62.73;100531.72;10344438;28;20061;-55
2023/10/16 23:54:41;;;;;;;4.82;2.45;;;;;;;10.72;62.18;100517.94;10342073;28;20056;-55
2023/10/16 23:59:48;;;;;;;3.35;2.67;;;;;;;10.71;63.08;100520.72;10342992;28;20371;-55
